La Grande Rivière Airport
CYGL : now visible

Airfield :











YOU CAN JOIN US ON...

 
LOGIN :

Register | Disclaimer

   EN    FR    IT 

 









Legend :    VFR   Marginal VFR   IFR   Intensive IFR   Very Intensive IFR
Visi :
Ceiling :
>= 8 km
>= 3000ft
5 to 8 km
1000 to 3000 ft
1500m to 5 km
500 to 1000 ft
800 to 1500m
200 to 500 ft
< 800m
< 200 ft
Symbols :   Thunderstorms  Fog  Heavy snow  Heavy precipitations  Wind > 20 kt






- Airport Elevation : 639 ft
- IATA code : YGL


CYGL - La Grande Rivière

CURRENT METAR :
  • 291528Z 27022G31KT 3SM -FZDZ -SN OVC010 M04/M05 A2978 RMK SF8 SLP100

EXPIRED METARs :
  • 291500Z 26019G26KT 3SM -FZDZ -SN OVC008 M04/M05 A2977 RMK SF8 SLP097
  • 291427Z 27025G34KT 3SM -FZDZ -SN OVC010 M04/M05 A2975 RMK SF8 SLP091
  • 291400Z 26023G29KT 4SM -SN OVC010 M04/M05 A2973 RMK SF8 SLP085
  • 291310Z 26021G28KT 4SM -SN OVC010 M05/M06 A2972 RMK SF8 SLP082
  • 291250Z 26023KT 2SM -SN OVC009 M05/M06 A2972 RMK SF8 SLP079

TAF AMD TAF CYGL
Valid from the 29 at 14:00 until the 30 at 12:00 UTC


291444Z 2914/3012 26022G32KT 6SM -SN OVC020
TEMPO 2914/2916 2SM -SN -FZDZ BR OVC010
FM291600 26022G32KT 6SM -SN OVC020
TEMPO 2916/2918 2SM -SN OVC010
PROB30 2916/2918 3SM -FZDZ BR
FM291800 26022G32KT 6SM -SN OVC020
TEMPO 2918/2922 2SM -SN OVC010
PROB30 2918/2922 3/4SM -SHSN BLSN VV008
FM292200 26015G25KT P6SM -SN BKN030
TEMPO 2922/3001 2SM -SHSN OVC020
FM300100 24010KT P6SM BKN030
PROB30 3001/3006 2SM -SHSN OVC020 RMK NXT FCST BY 291800Z
CZUL FIR / North America



MET'MAP, your aeronautical weather chart ! - Copyright ORBIFLY December 2007 - Disclaimer

ORBIFLY MET'MAP TEAM :

Programming & Development : Alexandra Zaïnal
Concept & original design : Baudouin d'Aumeries
Assistance for programming : Marc-Olivier Méhu
Technical & hardware support : Manuel Goepfert

Contact : metmap@orbifly.com




SOURCES & CREDITS :

   NOAA       Earth
Advisory